createdAt,value
2023-02-12T00:05:24.656Z,19.70
2023-02-12T00:15:24.690Z,21.00
2023-02-12T00:25:24.655Z,19.80
2023-02-12T00:35:24.639Z,18.90
2023-02-12T00:45:24.686Z,20.20
2023-02-12T00:55:24.683Z,18.10
2023-02-12T01:05:24.911Z,17.30
2023-02-12T01:15:24.671Z,18.00
2023-02-12T01:25:24.695Z,18.50
2023-02-12T01:35:24.661Z,18.00
2023-02-12T01:45:24.685Z,19.20
2023-02-12T01:55:24.699Z,22.10
2023-02-12T02:05:24.722Z,19.70
2023-02-12T02:15:24.672Z,17.80
2023-02-12T02:25:24.660Z,20.30
2023-02-12T02:35:24.700Z,21.00
2023-02-12T02:45:24.702Z,21.20
2023-02-12T02:55:24.706Z,20.00
2023-02-12T03:05:24.724Z,20.50
2023-02-12T03:15:24.755Z,20.10
2023-02-12T03:25:24.692Z,21.60
2023-02-12T03:35:24.706Z,21.30
2023-02-12T03:45:24.716Z,22.20
2023-02-12T03:55:24.724Z,23.20
2023-02-12T04:05:24.702Z,22.50
2023-02-12T04:15:24.732Z,22.60
2023-02-12T04:25:24.727Z,22.60
2023-02-12T04:35:24.715Z,22.40
2023-02-12T04:45:24.714Z,23.10
2023-02-12T04:55:24.743Z,24.00
2023-02-12T05:15:24.725Z,23.00
2023-02-12T05:25:24.754Z,23.50
2023-02-12T05:35:24.763Z,24.70
2023-02-12T05:45:24.736Z,23.80
2023-02-12T05:55:24.757Z,23.20
2023-02-12T06:05:24.733Z,22.50
2023-02-12T06:15:24.816Z,24.70
2023-02-12T06:25:24.778Z,23.30
2023-02-12T06:35:24.768Z,25.00
2023-02-12T06:45:24.761Z,25.10
2023-02-12T06:55:24.755Z,24.80
2023-02-12T07:05:24.794Z,24.60
2023-02-12T07:15:24.756Z,24.10
2023-02-12T07:25:24.790Z,24.70
2023-02-12T07:35:24.785Z,25.30
2023-02-12T07:45:24.811Z,23.20
2023-02-12T07:55:24.776Z,23.00
2023-02-12T08:05:24.791Z,22.80
2023-02-12T08:15:24.817Z,22.60
2023-02-12T08:25:24.900Z,21.60
2023-02-12T08:35:24.935Z,21.00
2023-02-12T08:45:24.828Z,20.20
2023-02-12T08:55:24.818Z,21.10
2023-02-12T09:05:24.797Z,21.50
2023-02-12T09:15:24.801Z,19.10
2023-02-12T09:25:24.850Z,19.40
2023-02-12T09:35:24.990Z,21.40
2023-02-12T09:45:24.844Z,19.20
2023-02-12T09:55:24.855Z,18.80
2023-02-12T10:05:24.848Z,18.50
2023-02-12T10:15:24.854Z,26.20
2023-02-12T10:25:24.858Z,8.00
2023-02-12T10:35:24.843Z,7.10
2023-02-12T10:45:24.868Z,7.00
2023-02-12T10:55:24.835Z,6.60
2023-02-12T11:05:24.878Z,8.00
2023-02-12T11:15:24.851Z,10.70
2023-02-12T11:25:24.872Z,6.40
2023-02-12T11:35:24.865Z,6.00
2023-02-12T11:45:24.890Z,5.30
2023-02-12T11:55:24.876Z,5.80
2023-02-12T12:05:24.878Z,4.40
2023-02-12T12:15:24.865Z,5.80
2023-02-12T12:25:24.909Z,5.40
2023-02-12T12:35:24.892Z,6.10
2023-02-12T12:45:24.997Z,5.50
2023-02-12T12:55:24.882Z,5.20
2023-02-12T13:05:24.918Z,4.20
2023-02-12T13:15:24.933Z,5.50
2023-02-12T13:25:24.933Z,3.20
2023-02-12T13:35:24.935Z,3.00
2023-02-12T13:45:24.936Z,2.70
2023-02-12T13:55:24.957Z,4.80
2023-02-12T14:05:24.922Z,2.40
2023-02-12T14:15:24.945Z,2.90
2023-02-12T14:25:24.945Z,2.50
2023-02-12T14:35:24.952Z,9.60
2023-02-12T14:45:24.958Z,3.50
2023-02-12T14:55:24.932Z,9.50
2023-02-12T15:05:25.037Z,8.80
2023-02-12T15:15:24.968Z,35.70
2023-02-12T15:25:24.964Z,14.80
2023-02-12T15:35:24.971Z,12.90
2023-02-12T15:45:24.961Z,16.50
2023-02-12T15:55:25.043Z,19.30
2023-02-12T16:05:24.995Z,19.70
2023-02-12T16:15:24.964Z,30.70
2023-02-12T16:25:24.996Z,16.90
2023-02-12T16:35:24.957Z,21.50
2023-02-12T16:45:25.065Z,28.70
2023-02-12T16:55:24.980Z,31.60
2023-02-12T17:05:25.041Z,39.90
2023-02-12T17:15:24.997Z,23.80
2023-02-12T17:25:24.986Z,28.40
2023-02-12T17:35:24.990Z,26.90
2023-02-12T17:45:24.992Z,20.80
2023-02-12T17:55:25.018Z,23.30
2023-02-12T18:05:25.031Z,24.50
2023-02-12T18:15:25.041Z,33.80
2023-02-12T18:25:25.000Z,36.70
2023-02-12T18:35:25.012Z,31.10
2023-02-12T18:45:25.016Z,26.30
2023-02-12T18:55:25.069Z,30.30
2023-02-12T19:05:25.055Z,27.60
2023-02-12T19:15:25.080Z,27.20
2023-02-12T19:25:25.046Z,38.80
2023-02-12T19:35:25.029Z,33.00
2023-02-12T19:45:25.033Z,31.30
2023-02-12T19:55:25.029Z,27.70
2023-02-12T20:05:25.073Z,24.50
2023-02-12T20:15:25.084Z,30.10
2023-02-12T20:25:25.109Z,24.10
2023-02-12T20:35:25.087Z,24.20
2023-02-12T20:45:25.074Z,20.10
2023-02-12T20:55:25.058Z,18.50
2023-02-12T21:05:25.059Z,20.50
2023-02-12T21:15:25.084Z,18.60
2023-02-12T21:25:25.147Z,20.20
2023-02-12T21:35:25.093Z,22.80
2023-02-12T21:45:25.192Z,25.50
2023-02-12T21:55:25.070Z,27.90
2023-02-12T22:05:25.068Z,26.00
2023-02-12T22:15:25.084Z,29.50
2023-02-12T22:35:25.089Z,34.80
2023-02-12T22:45:25.108Z,23.90
2023-02-12T22:55:25.072Z,25.90
2023-02-12T23:05:25.108Z,20.60
2023-02-12T23:15:25.185Z,25.20
2023-02-12T23:25:25.100Z,30.60
2023-02-12T23:35:25.161Z,21.30
2023-02-12T23:45:25.177Z,24.80
2023-02-12T23:55:25.168Z,23.20
